sensor_id;sensor_type;location;lat;lon;timestamp;pressure;altitude;pressure_sealevel;temperature;humidity
46015;BME280;36844;51.898;-0.874;2023-02-28T00:00:50;102185.84;;;18.65;
46015;BME280;36844;51.898;-0.874;2023-02-28T00:03:15;102182.28;;;18.61;
46015;BME280;36844;51.898;-0.874;2023-02-28T00:05:40;102175.66;;;18.59;
46015;BME280;36844;51.898;-0.874;2023-02-28T00:08:06;102181.44;;;18.57;
46015;BME280;36844;51.898;-0.874;2023-02-28T00:10:31;102179.47;;;18.54;
46015;BME280;36844;51.898;-0.874;2023-02-28T00:13:01;102180.16;;;18.51;
46015;BME280;36844;51.898;-0.874;2023-02-28T00:15:27;102183.56;;;18.48;
46015;BME280;36844;51.898;-0.874;2023-02-28T00:17:52;102195.09;;;18.45;
46015;BME280;36844;51.898;-0.874;2023-02-28T00:20:17;102191.16;;;18.43;
46015;BME280;36844;51.898;-0.874;2023-02-28T00:22:44;102190.31;;;18.39;
46015;BME280;36844;51.898;-0.874;2023-02-28T00:25:10;102192.56;;;18.37;
46015;BME280;36844;51.898;-0.874;2023-02-28T00:27:35;102193.31;;;18.34;
46015;BME280;36844;51.898;-0.874;2023-02-28T00:30:01;102196.31;;;18.32;
46015;BME280;36844;51.898;-0.874;2023-02-28T00:32:26;102197.84;;;18.30;
46015;BME280;36844;51.898;-0.874;2023-02-28T00:34:51;102201.25;;;18.27;
46015;BME280;36844;51.898;-0.874;2023-02-28T00:37:17;102206.19;;;18.25;
46015;BME280;36844;51.898;-0.874;2023-02-28T00:39:42;102213.09;;;18.22;
46015;BME280;36844;51.898;-0.874;2023-02-28T00:42:07;102206.50;;;18.20;
46015;BME280;36844;51.898;-0.874;2023-02-28T00:44:33;102207.63;;;18.19;
46015;BME280;36844;51.898;-0.874;2023-02-28T00:46:59;102216.03;;;18.17;
46015;BME280;36844;51.898;-0.874;2023-02-28T00:49:25;102211.34;;;18.14;
46015;BME280;36844;51.898;-0.874;2023-02-28T00:51:50;102209.06;;;18.13;
46015;BME280;36844;51.898;-0.874;2023-02-28T00:54:16;102206.69;;;18.11;
46015;BME280;36844;51.898;-0.874;2023-02-28T00:56:41;102203.91;;;18.08;
46015;BME280;36844;51.898;-0.874;2023-02-28T00:59:07;102198.88;;;18.06;
46015;BME280;36844;51.898;-0.874;2023-02-28T01:01:32;102203.03;;;18.04;
46015;BME280;36844;51.898;-0.874;2023-02-28T01:03:58;102208.78;;;18.02;
46015;BME280;36844;51.898;-0.874;2023-02-28T01:06:23;102209.16;;;18.01;
46015;BME280;36844;51.898;-0.874;2023-02-28T01:08:48;102207.16;;;17.98;
46015;BME280;36844;51.898;-0.874;2023-02-28T01:11:15;102205.59;;;17.97;
46015;BME280;36844;51.898;-0.874;2023-02-28T01:13:41;102207.06;;;17.94;
46015;BME280;36844;51.898;-0.874;2023-02-28T01:16:06;102210.13;;;17.93;
46015;BME280;36844;51.898;-0.874;2023-02-28T01:18:32;102217.78;;;17.91;
46015;BME280;36844;51.898;-0.874;2023-02-28T01:20:57;102208.47;;;17.88;
46015;BME280;36844;51.898;-0.874;2023-02-28T01:23:22;102213.09;;;17.88;
46015;BME280;36844;51.898;-0.874;2023-02-28T01:25:51;102214.56;;;17.85;
46015;BME280;36844;51.898;-0.874;2023-02-28T01:28:16;102223.00;;;17.84;
46015;BME280;36844;51.898;-0.874;2023-02-28T01:30:42;102225.28;;;17.82;
46015;BME280;36844;51.898;-0.874;2023-02-28T01:33:07;102225.94;;;17.78;
46015;BME280;36844;51.898;-0.874;2023-02-28T01:35:33;102225.19;;;17.78;
46015;BME280;36844;51.898;-0.874;2023-02-28T01:37:58;102223.97;;;17.75;
46015;BME280;36844;51.898;-0.874;2023-02-28T01:40:24;102221.97;;;17.72;
46015;BME280;36844;51.898;-0.874;2023-02-28T01:42:49;102225.78;;;17.71;
46015;BME280;36844;51.898;-0.874;2023-02-28T01:47:50;102227.59;;;17.67;
46015;BME280;36844;51.898;-0.874;2023-02-28T01:50:19;102221.81;;;17.65;
46015;BME280;36844;51.898;-0.874;2023-02-28T01:52:45;102214.84;;;17.64;
46015;BME280;36844;51.898;-0.874;2023-02-28T01:55:11;102227.13;;;17.62;
46015;BME280;36844;51.898;-0.874;2023-02-28T01:57:39;102214.75;;;17.61;
46015;BME280;36844;51.898;-0.874;2023-02-28T02:02:35;102218.16;;;17.58;
46015;BME280;36844;51.898;-0.874;2023-02-28T02:05:06;102221.19;;;17.56;
46015;BME280;36844;51.898;-0.874;2023-02-28T02:07:32;102220.00;;;17.54;
46015;BME280;36844;51.898;-0.874;2023-02-28T02:10:03;102219.19;;;17.53;
46015;BME280;36844;51.898;-0.874;2023-02-28T02:15:12;102212.13;;;17.49;
46015;BME280;36844;51.898;-0.874;2023-02-28T02:17:39;102220.22;;;17.49;
46015;BME280;36844;51.898;-0.874;2023-02-28T02:36:22;102204.13;;;17.37;
46015;BME280;36844;51.898;-0.874;2023-02-28T02:38:32;102201.03;;;17.35;
46015;BME280;36844;51.898;-0.874;2023-02-28T02:43:29;102197.88;;;17.33;
46015;BME280;36844;51.898;-0.874;2023-02-28T02:45:58;102199.38;;;17.30;
46015;BME280;36844;51.898;-0.874;2023-02-28T02:48:26;102198.56;;;17.30;
46015;BME280;36844;51.898;-0.874;2023-02-28T02:50:54;102188.91;;;17.29;
46015;BME280;36844;51.898;-0.874;2023-02-28T02:53:22;102197.38;;;17.27;
46015;BME280;36844;51.898;-0.874;2023-02-28T02:55:49;102193.09;;;17.26;
46015;BME280;36844;51.898;-0.874;2023-02-28T02:58:19;102190.75;;;17.25;
46015;BME280;36844;51.898;-0.874;2023-02-28T03:00:47;102185.72;;;17.23;
46015;BME280;36844;51.898;-0.874;2023-02-28T03:03:13;102191.44;;;17.22;
46015;BME280;36844;51.898;-0.874;2023-02-28T03:05:44;102186.44;;;17.20;
46015;BME280;36844;51.898;-0.874;2023-02-28T03:08:11;102194.50;;;17.20;
46015;BME280;36844;51.898;-0.874;2023-02-28T03:18:40;102182.38;;;17.14;
46015;BME280;36844;51.898;-0.874;2023-02-28T03:21:27;102186.56;;;17.12;
46015;BME280;36844;51.898;-0.874;2023-02-28T03:23:59;102179.59;;;17.11;
46015;BME280;36844;51.898;-0.874;2023-02-28T03:26:27;102172.69;;;17.10;
46015;BME280;36844;51.898;-0.874;2023-02-28T03:31:26;102179.53;;;17.07;
46015;BME280;36844;51.898;-0.874;2023-02-28T03:36:25;102174.84;;;17.04;
46015;BME280;36844;51.898;-0.874;2023-02-28T03:38:58;102173.25;;;17.03;
46015;BME280;36844;51.898;-0.874;2023-02-28T03:41:32;102181.69;;;17.02;
46015;BME280;36844;51.898;-0.874;2023-02-28T03:44:02;102179.34;;;17.00;
46015;BME280;36844;51.898;-0.874;2023-02-28T03:46:30;102188.53;;;16.99;
46015;BME280;36844;51.898;-0.874;2023-02-28T03:49:07;102187.75;;;16.99;
46015;BME280;36844;51.898;-0.874;2023-02-28T03:51:34;102194.63;;;16.96;
46015;BME280;36844;51.898;-0.874;2023-02-28T03:54:02;102189.22;;;16.96;
46015;BME280;36844;51.898;-0.874;2023-02-28T03:56:33;102189.59;;;16.95;
46015;BME280;36844;51.898;-0.874;2023-02-28T04:01:32;102188.34;;;16.92;
46015;BME280;36844;51.898;-0.874;2023-02-28T04:03:58;102192.19;;;16.91;
46015;BME280;36844;51.898;-0.874;2023-02-28T04:06:23;102195.97;;;16.90;
46015;BME280;36844;51.898;-0.874;2023-02-28T04:08:49;102195.53;;;16.88;
46015;BME280;36844;51.898;-0.874;2023-02-28T04:13:43;102197.78;;;16.86;
46015;BME280;36844;51.898;-0.874;2023-02-28T04:16:08;102197.34;;;16.84;
46015;BME280;36844;51.898;-0.874;2023-02-28T04:18:40;102195.44;;;16.85;
46015;BME280;36844;51.898;-0.874;2023-02-28T04:21:06;102201.19;;;16.83;
46015;BME280;36844;51.898;-0.874;2023-02-28T04:23:31;102193.47;;;16.82;
46015;BME280;36844;51.898;-0.874;2023-02-28T04:25:57;102195.69;;;16.79;
46015;BME280;36844;51.898;-0.874;2023-02-28T04:28:22;102203.44;;;16.81;
46015;BME280;36844;51.898;-0.874;2023-02-28T04:30:47;102198.75;;;16.78;
46015;BME280;36844;51.898;-0.874;2023-02-28T04:33:12;102201.44;;;16.78;
46015;BME280;36844;51.898;-0.874;2023-02-28T04:35:38;102192.91;;;16.76;
46015;BME280;36844;51.898;-0.874;2023-02-28T04:38:03;102199.41;;;16.75;
46015;BME280;36844;51.898;-0.874;2023-02-28T04:40:28;102198.66;;;16.74;
46015;BME280;36844;51.898;-0.874;2023-02-28T04:42:53;102200.56;;;16.74;
46015;BME280;36844;51.898;-0.874;2023-02-28T04:45:19;102197.44;;;16.72;
46015;BME280;36844;51.898;-0.874;2023-02-28T04:47:44;102203.91;;;16.71;
46015;BME280;36844;51.898;-0.874;2023-02-28T04:50:09;102196.97;;;16.70;
46015;BME280;36844;51.898;-0.874;2023-02-28T04:52:34;102200.78;;;16.69;
46015;BME280;36844;51.898;-0.874;2023-02-28T04:55:00;102207.31;;;16.68;
46015;BME280;36844;51.898;-0.874;2023-02-28T04:57:25;102211.09;;;16.67;
46015;BME280;36844;51.898;-0.874;2023-02-28T04:59:50;102209.53;;;16.66;
46015;BME280;36844;51.898;-0.874;2023-02-28T05:02:15;102215.25;;;16.64;
46015;BME280;36844;51.898;-0.874;2023-02-28T05:04:41;102217.94;;;16.64;
46015;BME280;36844;51.898;-0.874;2023-02-28T05:07:06;102217.16;;;16.64;
46015;BME280;36844;51.898;-0.874;2023-02-28T05:09:31;102222.91;;;16.62;
46015;BME280;36844;51.898;-0.874;2023-02-28T05:11:57;102225.91;;;16.61;
46015;BME280;36844;51.898;-0.874;2023-02-28T05:14:23;102225.16;;;16.60;
46015;BME280;36844;51.898;-0.874;2023-02-28T05:16:48;102227.06;;;16.60;
46015;BME280;36844;51.898;-0.874;2023-02-28T05:19:13;102217.44;;;16.59;
46015;BME280;36844;51.898;-0.874;2023-02-28T05:21:48;102218.53;;;16.58;
46015;BME280;36844;51.898;-0.874;2023-02-28T05:24:14;102214.25;;;16.57;
46015;BME280;36844;51.898;-0.874;2023-02-28T05:26:41;102215.41;;;16.56;
46015;BME280;36844;51.898;-0.874;2023-02-28T05:29:06;102214.59;;;16.55;
46015;BME280;36844;51.898;-0.874;2023-02-28T05:31:32;102214.16;;;16.53;
46015;BME280;36844;51.898;-0.874;2023-02-28T05:33:57;102218.00;;;16.52;
46015;BME280;36844;51.898;-0.874;2023-02-28T05:36:22;102220.69;;;16.52;
46015;BME280;36844;51.898;-0.874;2023-02-28T05:38:48;102221.03;;;16.51;
46015;BME280;36844;51.898;-0.874;2023-02-28T05:41:13;102232.56;;;16.51;
46015;BME280;36844;51.898;-0.874;2023-02-28T05:43:38;102232.91;;;16.50;
46015;BME280;36844;51.898;-0.874;2023-02-28T05:46:04;102238.28;;;16.50;
46015;BME280;36844;51.898;-0.874;2023-02-28T05:48:30;102232.44;;;16.48;
46015;BME280;36844;51.898;-0.874;2023-02-28T05:50:56;102243.56;;;16.46;
46015;BME280;36844;51.898;-0.874;2023-02-28T05:53:22;102233.13;;;16.45;
46015;BME280;36844;51.898;-0.874;2023-02-28T05:55:47;102235.03;;;16.44;
46015;BME280;36844;51.898;-0.874;2023-02-28T05:58:13;102238.88;;;16.43;
46015;BME280;36844;51.898;-0.874;2023-02-28T06:00:38;102246.13;;;16.43;
46015;BME280;36844;51.898;-0.874;2023-02-28T06:03:03;102242.66;;;16.42;
46015;BME280;36844;51.898;-0.874;2023-02-28T06:05:28;102244.56;;;16.42;
46015;BME280;36844;51.898;-0.874;2023-02-28T06:07:54;102247.59;;;16.40;
46015;BME280;36844;51.898;-0.874;2023-02-28T06:10:19;102246.84;;;16.40;
46015;BME280;36844;51.898;-0.874;2023-02-28T06:12:44;102238.28;;;16.38;
46015;BME280;36844;51.898;-0.874;2023-02-28T06:15:13;102243.66;;;16.38;
46015;BME280;36844;51.898;-0.874;2023-02-28T06:17:39;102242.88;;;16.37;
46015;BME280;36844;51.898;-0.874;2023-02-28T06:20:05;102245.94;;;16.36;
46015;BME280;36844;51.898;-0.874;2023-02-28T06:22:30;102245.94;;;16.36;
46015;BME280;36844;51.898;-0.874;2023-02-28T06:24:56;102247.84;;;16.35;
46015;BME280;36844;51.898;-0.874;2023-02-28T06:27:22;102248.16;;;16.34;
46015;BME280;36844;51.898;-0.874;2023-02-28T06:29:48;102248.50;;;16.32;
46015;BME280;36844;51.898;-0.874;2023-02-28T06:32:13;102253.88;;;16.32;
46015;BME280;36844;51.898;-0.874;2023-02-28T06:34:38;102249.63;;;16.31;
46015;BME280;36844;51.898;-0.874;2023-02-28T06:37:03;102253.44;;;16.30;
46015;BME280;36844;51.898;-0.874;2023-02-28T06:39:29;102248.03;;;16.30;
46015;BME280;36844;51.898;-0.874;2023-02-28T06:41:54;102252.63;;;16.30;
46015;BME280;36844;51.898;-0.874;2023-02-28T06:44:20;102253.00;;;16.28;
46015;BME280;36844;51.898;-0.874;2023-02-28T06:46:45;102255.69;;;16.28;
46015;BME280;36844;51.898;-0.874;2023-02-28T06:49:11;102247.63;;;16.28;
46015;BME280;36844;51.898;-0.874;2023-02-28T06:51:37;102253.78;;;16.29;
46015;BME280;36844;51.898;-0.874;2023-02-28T06:54:04;102253.78;;;16.29;
46015;BME280;36844;51.898;-0.874;2023-02-28T06:56:29;102261.50;;;16.30;
46015;BME280;36844;51.898;-0.874;2023-02-28T06:58:54;102253.44;;;16.30;
46015;BME280;36844;51.898;-0.874;2023-02-28T07:01:20;102257.69;;;16.31;
46015;BME280;36844;51.898;-0.874;2023-02-28T07:03:47;102259.25;;;16.32;
46015;BME280;36844;51.898;-0.874;2023-02-28T07:06:17;102259.69;;;16.34;
46015;BME280;36844;51.898;-0.874;2023-02-28T07:08:42;102260.94;;;16.37;
46015;BME280;36844;51.898;-0.874;2023-02-28T07:11:08;102257.47;;;16.36;
46015;BME280;36844;51.898;-0.874;2023-02-28T07:13:33;102265.97;;;16.38;
46015;BME280;36844;51.898;-0.874;2023-02-28T07:15:59;102258.34;;;16.40;
46015;BME280;36844;51.898;-0.874;2023-02-28T07:18:25;102266.06;;;16.42;
46015;BME280;36844;51.898;-0.874;2023-02-28T07:20:50;102258.09;;;16.45;
46015;BME280;36844;51.898;-0.874;2023-02-28T07:23:16;102262.81;;;16.48;
46015;BME280;36844;51.898;-0.874;2023-02-28T07:25:41;102266.41;;;16.52;
46015;BME280;36844;51.898;-0.874;2023-02-28T07:28:06;102259.56;;;16.55;
46015;BME280;36844;51.898;-0.874;2023-02-28T07:30:31;102260.47;;;16.59;
46015;BME280;36844;51.898;-0.874;2023-02-28T07:32:57;102255.97;;;16.63;
46015;BME280;36844;51.898;-0.874;2023-02-28T07:35:22;102260.66;;;16.66;
46015;BME280;36844;51.898;-0.874;2023-02-28T07:37:47;102255.72;;;16.68;
46015;BME280;36844;51.898;-0.874;2023-02-28T07:40:13;102258.63;;;16.75;
46015;BME280;36844;51.898;-0.874;2023-02-28T07:42:39;102254.88;;;16.79;
46015;BME280;36844;51.898;-0.874;2023-02-28T07:45:05;102255.44;;;16.85;
46015;BME280;36844;51.898;-0.874;2023-02-28T07:47:31;102250.59;;;16.91;
46015;BME280;36844;51.898;-0.874;2023-02-28T07:49:56;102252.25;;;16.95;
46015;BME280;36844;51.898;-0.874;2023-02-28T07:52:22;102257.06;;;17.02;
46015;BME280;36844;51.898;-0.874;2023-02-28T07:54:48;102256.06;;;17.06;
46015;BME280;36844;51.898;-0.874;2023-02-28T07:57:14;102262.75;;;17.12;
46015;BME280;36844;51.898;-0.874;2023-02-28T07:59:39;102260.16;;;17.16;
46015;BME280;36844;51.898;-0.874;2023-02-28T08:02:04;102266.06;;;17.21;
46015;BME280;36844;51.898;-0.874;2023-02-28T08:04:31;102272.00;;;17.27;
46015;BME280;36844;51.898;-0.874;2023-02-28T08:06:57;102265.59;;;17.31;
46015;BME280;36844;51.898;-0.874;2023-02-28T08:09:22;102267.25;;;17.36;
46015;BME280;36844;51.898;-0.874;2023-02-28T08:11:47;102269.66;;;17.41;
46015;BME280;36844;51.898;-0.874;2023-02-28T08:14:13;102264.34;;;17.44;
46015;BME280;36844;51.898;-0.874;2023-02-28T08:16:38;102272.22;;;17.49;
46015;BME280;36844;51.898;-0.874;2023-02-28T08:19:04;102272.28;;;17.53;
46015;BME280;36844;51.898;-0.874;2023-02-28T08:21:29;102260.03;;;17.55;
46015;BME280;36844;51.898;-0.874;2023-02-28T08:23:54;102265.53;;;17.59;
46015;BME280;36844;51.898;-0.874;2023-02-28T08:26:21;102265.97;;;17.61;
46015;BME280;36844;51.898;-0.874;2023-02-28T08:28:46;102256.38;;;17.63;
46015;BME280;36844;51.898;-0.874;2023-02-28T08:31:13;102261.09;;;17.66;
46015;BME280;36844;51.898;-0.874;2023-02-28T08:33:39;102259.94;;;17.67;
46015;BME280;36844;51.898;-0.874;2023-02-28T08:36:05;102252.34;;;17.69;
46015;BME280;36844;51.898;-0.874;2023-02-28T08:38:31;102255.44;;;17.71;
46015;BME280;36844;51.898;-0.874;2023-02-28T08:40:57;102259.72;;;17.72;
46015;BME280;36844;51.898;-0.874;2023-02-28T08:43:22;102260.13;;;17.74;
46015;BME280;36844;51.898;-0.874;2023-02-28T08:45:50;102253.19;;;17.73;
46015;BME280;36844;51.898;-0.874;2023-02-28T08:48:15;102256.66;;;17.74;
46015;BME280;36844;51.898;-0.874;2023-02-28T08:50:41;102263.28;;;17.77;
46015;BME280;36844;51.898;-0.874;2023-02-28T08:53:06;102249.81;;;17.77;
46015;BME280;36844;51.898;-0.874;2023-02-28T08:55:31;102249.44;;;17.78;
46015;BME280;36844;51.898;-0.874;2023-02-28T08:57:56;102255.19;;;17.77;
46015;BME280;36844;51.898;-0.874;2023-02-28T09:00:23;102252.50;;;17.77;
46015;BME280;36844;51.898;-0.874;2023-02-28T09:02:48;102254.03;;;17.77;
46015;BME280;36844;51.898;-0.874;2023-02-28T09:05:13;102257.09;;;17.76;
46015;BME280;36844;51.898;-0.874;2023-02-28T09:07:38;102250.13;;;17.75;
46015;BME280;36844;51.898;-0.874;2023-02-28T09:10:04;102241.25;;;17.74;
46015;BME280;36844;51.898;-0.874;2023-02-28T09:12:33;102235.09;;;17.74;
46015;BME280;36844;51.898;-0.874;2023-02-28T09:14:58;102237.78;;;17.74;
46015;BME280;36844;51.898;-0.874;2023-02-28T09:17:23;102236.66;;;17.75;
46015;BME280;36844;51.898;-0.874;2023-02-28T09:19:48;102233.94;;;17.75;
46015;BME280;36844;51.898;-0.874;2023-02-28T09:22:14;102241.25;;;17.74;
46015;BME280;36844;51.898;-0.874;2023-02-28T09:24:39;102228.91;;;17.73;
46015;BME280;36844;51.898;-0.874;2023-02-28T09:27:04;102223.09;;;17.71;
46015;BME280;36844;51.898;-0.874;2023-02-28T09:29:30;102219.59;;;17.71;
46015;BME280;36844;51.898;-0.874;2023-02-28T09:31:56;102218.84;;;17.70;
46015;BME280;36844;51.898;-0.874;2023-02-28T09:34:23;102222.69;;;17.69;
46015;BME280;36844;51.898;-0.874;2023-02-28T09:36:49;102222.69;;;17.69;
46015;BME280;36844;51.898;-0.874;2023-02-28T09:39:15;102228.06;;;17.69;
46015;BME280;36844;51.898;-0.874;2023-02-28T09:41:43;102234.56;;;17.68;
46015;BME280;36844;51.898;-0.874;2023-02-28T09:47:00;102235.69;;;17.67;
46015;BME280;36844;51.898;-0.874;2023-02-28T09:49:28;102237.59;;;17.67;
46015;BME280;36844;51.898;-0.874;2023-02-28T09:52:01;102238.38;;;17.67;
46015;BME280;36844;51.898;-0.874;2023-02-28T09:54:28;102235.69;;;17.67;
46015;BME280;36844;51.898;-0.874;2023-02-28T09:56:55;102243.47;;;17.69;
46015;BME280;36844;51.898;-0.874;2023-02-28T10:07:50;102256.75;;;17.77;
46015;BME280;36844;51.898;-0.874;2023-02-28T10:09:57;102249.09;;;17.80;
46015;BME280;36844;51.898;-0.874;2023-02-28T10:12:25;102122.56;;;17.05;
46015;BME280;36844;51.898;-0.874;2023-02-28T10:14:51;102243.44;;;17.85;
46015;BME280;36844;51.898;-0.874;2023-02-28T10:17:19;102247.34;;;17.87;
46015;BME280;36844;51.898;-0.874;2023-02-28T10:25:19;102247.94;;;17.96;
46015;BME280;36844;51.898;-0.874;2023-02-28T10:27:45;102242.97;;;17.98;
46015;BME280;36844;51.898;-0.874;2023-02-28T10:30:10;102246.47;;;17.99;
46015;BME280;36844;51.898;-0.874;2023-02-28T10:32:36;102242.31;;;18.01;
46015;BME280;36844;51.898;-0.874;2023-02-28T10:35:10;102238.47;;;18.02;
46015;BME280;36844;51.898;-0.874;2023-02-28T10:37:39;102233.81;;;18.03;
46015;BME280;36844;51.898;-0.874;2023-02-28T10:40:05;102233.81;;;18.03;
46015;BME280;36844;51.898;-0.874;2023-02-28T10:42:31;102232.72;;;18.04;
46015;BME280;36844;51.898;-0.874;2023-02-28T10:45:09;102226.53;;;18.03;
46015;BME280;36844;51.898;-0.874;2023-02-28T10:47:48;102220.34;;;18.03;
46015;BME280;36844;51.898;-0.874;2023-02-28T10:50:27;102223.81;;;18.03;
46015;BME280;36844;51.898;-0.874;2023-02-28T10:52:52;102228.44;;;18.03;
46015;BME280;36844;51.898;-0.874;2023-02-28T10:55:22;102235.06;;;18.05;
46015;BME280;36844;51.898;-0.874;2023-02-28T10:57:48;102229.66;;;18.05;
46015;BME280;36844;51.898;-0.874;2023-02-28T11:00:16;102234.69;;;18.07;
46015;BME280;36844;51.898;-0.874;2023-02-28T11:02:41;102233.56;;;18.08;
46015;BME280;36844;51.898;-0.874;2023-02-28T11:05:22;102231.31;;;18.10;
46015;BME280;36844;51.898;-0.874;2023-02-28T11:07:56;102232.47;;;18.09;
46015;BME280;36844;51.898;-0.874;2023-02-28T11:10:24;102230.16;;;18.11;
46015;BME280;36844;51.898;-0.874;2023-02-28T11:12:50;102224.44;;;18.12;
46015;BME280;36844;51.898;-0.874;2023-02-28T11:15:26;102229.44;;;18.14;
46015;BME280;36844;51.898;-0.874;2023-02-28T11:20:23;102224.13;;;18.17;
46015;BME280;36844;51.898;-0.874;2023-02-28T11:22:49;102218.41;;;18.19;
46015;BME280;36844;51.898;-0.874;2023-02-28T11:25:21;102225.78;;;18.22;
46015;BME280;36844;51.898;-0.874;2023-02-28T11:27:48;102221.63;;;18.24;
46015;BME280;36844;51.898;-0.874;2023-02-28T11:32:48;102222.44;;;18.28;
46015;BME280;36844;51.898;-0.874;2023-02-28T11:35:17;102212.91;;;18.31;
46015;BME280;36844;51.898;-0.874;2023-02-28T11:37:47;102210.59;;;18.33;
46015;BME280;36844;51.898;-0.874;2023-02-28T11:40:17;102214.16;;;18.37;
46015;BME280;36844;51.898;-0.874;2023-02-28T11:42:45;102204.59;;;18.39;
46015;BME280;36844;51.898;-0.874;2023-02-28T11:45:15;102209.28;;;18.42;
46015;BME280;36844;51.898;-0.874;2023-02-28T11:47:47;102203.94;;;18.46;
46015;BME280;36844;51.898;-0.874;2023-02-28T11:50:33;102205.94;;;18.49;
46015;BME280;36844;51.898;-0.874;2023-02-28T11:53:04;102209.06;;;18.51;
46015;BME280;36844;51.898;-0.874;2023-02-28T12:05:39;102193.88;;;18.62;
46015;BME280;36844;51.898;-0.874;2023-02-28T12:25:54;102161.69;;;18.72;
46015;BME280;36844;51.898;-0.874;2023-02-28T12:28:23;102154.38;;;18.73;
46015;BME280;36844;51.898;-0.874;2023-02-28T12:30:56;102153.25;;;18.74;
46015;BME280;36844;51.898;-0.874;2023-02-28T12:33:24;102149.34;;;18.75;
46015;BME280;36844;51.898;-0.874;2023-02-28T12:35:52;102133.16;;;18.75;
46015;BME280;36844;51.898;-0.874;2023-02-28T12:38:31;102140.13;;;18.76;
46015;BME280;36844;51.898;-0.874;2023-02-28T12:43:25;102131.25;;;18.75;
46015;BME280;36844;51.898;-0.874;2023-02-28T12:45:59;102113.13;;;18.76;
46015;BME280;36844;51.898;-0.874;2023-02-28T12:48:31;102119.66;;;18.75;
46015;BME280;36844;51.898;-0.874;2023-02-28T12:50:57;102102.34;;;18.76;
46015;BME280;36844;51.898;-0.874;2023-02-28T12:56:02;102086.47;;;18.74;
46015;BME280;36844;51.898;-0.874;2023-02-28T12:58:40;102081.06;;;18.74;
46015;BME280;36844;51.898;-0.874;2023-02-28T13:06:10;102075.28;;;18.72;
46015;BME280;36844;51.898;-0.874;2023-02-28T13:11:39;102070.22;;;18.71;
46015;BME280;36844;51.898;-0.874;2023-02-28T13:14:06;102064.44;;;18.69;
46015;BME280;36844;51.898;-0.874;2023-02-28T13:17:17;102066.00;;;18.70;
46015;BME280;36844;51.898;-0.874;2023-02-28T13:19:32;102057.44;;;18.68;
46015;BME280;36844;51.898;-0.874;2023-02-28T13:21:58;102050.47;;;18.67;
46015;BME280;36844;51.898;-0.874;2023-02-28T13:24:44;102054.38;;;18.66;
46015;BME280;36844;51.898;-0.874;2023-02-28T13:34:32;102034.97;;;18.60;
46015;BME280;36844;51.898;-0.874;2023-02-28T13:37:32;102027.22;;;18.59;
46015;BME280;36844;51.898;-0.874;2023-02-28T13:39:58;102024.09;;;18.57;
46015;BME280;36844;51.898;-0.874;2023-02-28T13:47:30;102008.22;;;18.52;
46015;BME280;36844;51.898;-0.874;2023-02-28T13:53:02;101998.91;;;18.49;
46015;BME280;36844;51.898;-0.874;2023-02-28T13:58:21;101998.84;;;18.46;
46015;BME280;36844;51.898;-0.874;2023-02-28T14:06:21;102001.06;;;18.40;
46015;BME280;36844;51.898;-0.874;2023-02-28T14:09:06;101998.00;;;18.38;
46015;BME280;36844;51.898;-0.874;2023-02-28T14:11:41;102003.72;;;18.37;
46015;BME280;36844;51.898;-0.874;2023-02-28T14:14:07;102012.94;;;18.36;
46015;BME280;36844;51.898;-0.874;2023-02-28T14:17:06;102004.44;;;18.34;
46015;BME280;36844;51.898;-0.874;2023-02-28T14:19:25;102000.19;;;18.33;
46015;BME280;36844;51.898;-0.874;2023-02-28T14:24:32;102000.91;;;18.30;
46015;BME280;36844;51.898;-0.874;2023-02-28T14:29:59;102003.53;;;18.26;
46015;BME280;36844;51.898;-0.874;2023-02-28T14:37:42;102001.13;;;18.21;
46015;BME280;36844;51.898;-0.874;2023-02-28T14:40:14;101990.72;;;18.20;
46015;BME280;36844;51.898;-0.874;2023-02-28T14:42:46;101998.34;;;18.18;
46015;BME280;36844;51.898;-0.874;2023-02-28T14:45:21;101983.31;;;18.17;
46015;BME280;36844;51.898;-0.874;2023-02-28T14:47:47;101984.47;;;18.16;
46015;BME280;36844;51.898;-0.874;2023-02-28T14:50:17;101979.41;;;18.14;
46015;BME280;36844;51.898;-0.874;2023-02-28T14:52:43;101977.13;;;18.13;
46015;BME280;36844;51.898;-0.874;2023-02-28T14:55:16;101972.84;;;18.12;
46015;BME280;36844;51.898;-0.874;2023-02-28T14:57:50;101973.97;;;18.11;
46015;BME280;36844;51.898;-0.874;2023-02-28T15:00:22;101973.97;;;18.11;
46015;BME280;36844;51.898;-0.874;2023-02-28T15:02:48;101975.47;;;18.08;
46015;BME280;36844;51.898;-0.874;2023-02-28T15:07:43;101976.19;;;18.05;
46015;BME280;36844;51.898;-0.874;2023-02-28T15:10:19;101963.84;;;18.04;
46015;BME280;36844;51.898;-0.874;2023-02-28T15:12:52;101968.44;;;18.04;
46015;BME280;36844;51.898;-0.874;2023-02-28T15:15:18;101973.41;;;18.02;
46015;BME280;36844;51.898;-0.874;2023-02-28T15:17:46;101963.78;;;18.01;
46015;BME280;36844;51.898;-0.874;2023-02-28T15:20:12;101957.97;;;17.99;
46015;BME280;36844;51.898;-0.874;2023-02-28T15:22:38;101962.56;;;17.98;
46015;BME280;36844;51.898;-0.874;2023-02-28T15:25:04;101962.94;;;17.97;
46015;BME280;36844;51.898;-0.874;2023-02-28T15:27:31;101961.34;;;17.96;
46015;BME280;36844;51.898;-0.874;2023-02-28T15:30:00;101959.81;;;17.95;
46015;BME280;36844;51.898;-0.874;2023-02-28T15:32:31;101956.69;;;17.93;
46015;BME280;36844;51.898;-0.874;2023-02-28T15:34:57;101952.44;;;17.92;
46015;BME280;36844;51.898;-0.874;2023-02-28T15:39:58;101963.94;;;17.89;
46015;BME280;36844;51.898;-0.874;2023-02-28T15:42:28;101955.41;;;17.87;
46015;BME280;36844;51.898;-0.874;2023-02-28T15:44:54;101949.22;;;17.86;
46015;BME280;36844;51.898;-0.874;2023-02-28T15:47:22;101956.56;;;17.86;
46015;BME280;36844;51.898;-0.874;2023-02-28T15:49:49;101959.63;;;17.84;
46015;BME280;36844;51.898;-0.874;2023-02-28T15:52:17;101958.84;;;17.84;
46015;BME280;36844;51.898;-0.874;2023-02-28T15:54:43;101962.66;;;17.83;
46015;BME280;36844;51.898;-0.874;2023-02-28T15:57:20;101955.72;;;17.82;
46015;BME280;36844;51.898;-0.874;2023-02-28T15:59:57;101958.78;;;17.80;